Nashville, TN

19:40 CST le 21 janvier 2017 (GMT -0600)
Park at Melrose | | Change Station

Alt. 558 ft 36.13 °N, 86.78 °W | Updated 13 minutes ago

Partiellement nuageux
Partiellement nuageux
59.4 ° F
Paraît 59.4 ° F
N
0.0
Vent Variable Vent de OSO

Aujourd'hui
Haut(e) -- | Bas -- ° F
--% Risque de précip.
Hier
Haut(e) -- | Bas -- ° F
Precip. -- pouce
Pression 29.64 pouce
Visibilité 10.0 Miles terrestres
Nuages Peu 4100 ft
Nuageux 18000 ft
Point de rosée 52 ° F
Humidité 76%
Précipitations 0.00 pouce
Profondeur de la couche neigeuse Non disponible.
6:54 AM 5:02 PM
Lune descendante, 30% visible
METAR KBNA 220053Z 00000KT 10SM FEW041 BKN180 16/09 A2964 RMK AO2 SLP035 T01610094
Pression 29.64 pouce
Visibilité 10.0 Miles terrestres
Nuages Peu 4100 ft
Nuageux 18000 ft
Point de rosée 52 ° F
Humidité 76%
Précipitations 0.00 pouce
Profondeur de la couche neigeuse Non disponible.
6:54 AM 5:02 PM
Lune descendante, 30% visible
METAR KBNA 220053Z 00000KT 10SM FEW041 BKN180 16/09 A2964 RMK AO2 SLP035 T01610094

Get Your Daily Forecast Email!

Thanks for signing up!

Be on the lookout for a verification email in your inbox.

You'll start receiving the daily forecast at 8 AM.

×

10-Day Weather Forecast

Almanac

Astronomie

Jan. 21, 2017 Lever Coucher
Temps réel
Crépuscule civil
Crépuscule nautique
Crépuscule astronomique
Lune
Durée de lumière visible
Longueur du jour
Tomorrow will be .
, % of the Moon is Illuminated

Extrêmes aujourd'hui

State Highs State Lows

Community

WunderPhotos

Upload Photos

1,962,540 Photos téléchargées !

WunderBlog® & News

Nearby

Qualité de l'air

  Qualité de l'air Indice de la qualité de l'air Polluant
Not available.

Épaisseur de neige

Station Depth Altitude

Activité sismique

Ville Distance Mag. Time & Date
Minimum magnitude displayed is 2.5.

Températures des eaux côtières

Lieu Température

Stations

Stations météo à proximité

Emplacement de la station Température Refroidissement éolien Point de rosée Humidité Vent Precip. Alt. Mise à jour Type
                   

Watches & Warnings

There are currently no watches in effect.